Donalds, South Carolina
Current Conditions -  °F | °C
As of 7:56 AM on Tuesday 21 Oct 2014 (Local Time) from KGRD Reporting Station
Clear Clear  
Wind Chill: 50°   Ceiling: Unl
Heat Index: 50°   Visibility: 7mi
Dew Point: 48°   Wind: 5mph
Humidity: 93%   Direction: 270°W
Pressure: 29.98"   Gusts: NA
Location:  34.38°N, 82.35°W
Report Text: KGRD 211156Z AUTO 27004KT 7SM CLR 10/09 A2998 RMK AO2 SLP152 T01000089 10133 20094 53004
Loading
Personal Weather Stations






























Interactive Weather Map New forecast layout! Learn more

10-Day Weather Forecast

Advertisements
Track Severe Weather on mobile